createdAt,value
2022-08-22T00:12:28.857Z,3.224
2022-08-22T00:28:11.865Z,3.224
2022-08-22T00:43:54.567Z,3.224
2022-08-22T00:59:37.069Z,3.223
2022-08-22T01:15:19.649Z,3.223
2022-08-22T01:31:01.951Z,3.223
2022-08-22T01:46:44.982Z,3.223
2022-08-22T02:02:27.776Z,3.224
2022-08-22T02:18:10.265Z,3.224
2022-08-22T02:33:53.226Z,3.223
2022-08-22T02:49:35.821Z,3.223
2022-08-22T03:05:18.063Z,3.223
2022-08-22T03:21:00.816Z,3.224
2022-08-22T03:36:43.535Z,3.224
2022-08-22T03:52:25.661Z,3.224
2022-08-22T04:08:08.542Z,3.224
2022-08-22T04:23:51.404Z,3.224
2022-08-22T04:24:38.710Z,3.22
2022-08-22T04:40:20.895Z,3.223
2022-08-22T04:56:03.289Z,3.224
2022-08-22T05:11:46.269Z,3.223
2022-08-22T05:27:28.354Z,3.224
2022-08-22T05:43:11.312Z,3.224
2022-08-22T05:58:54.005Z,3.224
2022-08-22T06:14:36.555Z,3.224
2022-08-22T06:30:18.889Z,3.224
2022-08-22T06:46:01.434Z,3.225
2022-08-22T07:01:44.090Z,3.227
2022-08-22T07:17:26.680Z,3.231
2022-08-22T07:33:09.615Z,3.232
2022-08-22T07:48:52.075Z,3.235
2022-08-22T08:04:34.042Z,3.236
2022-08-22T08:20:16.071Z,3.242
2022-08-22T08:35:58.470Z,3.245
2022-08-22T08:51:40.867Z,3.254
2022-08-22T09:07:23.312Z,3.285
2022-08-22T09:23:05.765Z,3.325
2022-08-22T09:38:48.294Z,3.297
2022-08-22T09:54:30.459Z,3.289
2022-08-22T10:10:13.320Z,3.281
2022-08-22T10:25:55.776Z,3.275
2022-08-22T10:41:37.894Z,3.271
2022-08-22T10:57:20.135Z,3.265
2022-08-22T11:13:02.110Z,3.261
2022-08-22T11:28:44.828Z,3.257
2022-08-22T11:44:27.648Z,3.253
2022-08-22T12:00:09.995Z,3.474
2022-08-22T12:15:51.909Z,3.44
2022-08-22T12:47:16.758Z,3.401
2022-08-22T13:02:59.502Z,3.386
2022-08-22T13:18:44.570Z,3.372
2022-08-22T13:34:24.849Z,3.359
2022-08-22T13:50:07.268Z,3.347
2022-08-22T14:05:49.813Z,3.336
2022-08-22T14:21:31.649Z,3.328
2022-08-22T14:37:13.801Z,3.304
2022-08-22T14:52:56.013Z,3.296
2022-08-22T15:08:42.123Z,3.289
2022-08-22T15:24:20.733Z,3.282
2022-08-22T15:40:02.968Z,3.275
2022-08-22T15:55:45.818Z,3.27
2022-08-22T16:11:28.252Z,3.265
2022-08-22T16:27:10.279Z,3.259
2022-08-22T16:42:52.223Z,3.256
2022-08-22T16:58:34.348Z,3.252
2022-08-22T17:14:16.533Z,3.247
2022-08-22T17:29:59.022Z,3.245
2022-08-22T17:45:41.667Z,3.241
2022-08-22T18:01:23.666Z,3.238
2022-08-22T18:17:05.780Z,3.236
2022-08-22T18:32:47.812Z,3.235
2022-08-22T18:48:30.772Z,3.232
2022-08-22T19:04:13.161Z,3.231
2022-08-22T19:19:55.164Z,3.229
2022-08-22T19:35:37.618Z,3.228
2022-08-22T19:51:19.961Z,3.227
2022-08-22T20:07:02.674Z,3.227
2022-08-22T20:22:44.852Z,3.224
2022-08-22T20:38:27.718Z,3.217
2022-08-22T20:54:09.829Z,3.217
2022-08-22T21:09:52.642Z,3.217
2022-08-22T21:25:35.239Z,3.216
2022-08-22T21:41:17.988Z,3.216
2022-08-22T21:57:00.157Z,3.216
2022-08-22T22:12:42.200Z,3.216
2022-08-22T22:28:24.915Z,3.216
2022-08-22T22:44:07.864Z,3.216
2022-08-22T22:59:50.002Z,3.216
2022-08-22T23:15:32.395Z,3.223
2022-08-22T23:31:15.310Z,3.216
2022-08-22T23:46:57.300Z,3.216
